createdAt,value
2022-12-31T00:00:08.656Z,2.47
2022-12-31T00:02:35.435Z,2.11
2022-12-31T00:05:02.412Z,1.82
2022-12-31T00:07:29.157Z,1.88
2022-12-31T00:09:55.660Z,2.12
2022-12-31T00:12:22.203Z,2.18
2022-12-31T00:14:48.748Z,1.87
2022-12-31T00:17:15.366Z,1.84
2022-12-31T00:19:43.731Z,1.75
2022-12-31T00:22:10.642Z,2.06
2022-12-31T00:24:37.212Z,2.10
2022-12-31T00:27:03.844Z,2.16
2022-12-31T00:29:30.460Z,1.94
2022-12-31T00:31:57.033Z,1.70
2022-12-31T00:34:23.754Z,1.57
2022-12-31T00:36:50.639Z,1.83
2022-12-31T00:39:17.358Z,1.81
2022-12-31T00:41:44.241Z,1.39
2022-12-31T00:44:12.273Z,1.70
2022-12-31T00:49:04.784Z,2.01
2022-12-31T00:51:31.402Z,1.60
2022-12-31T00:53:58.765Z,1.64
2022-12-31T00:56:28.752Z,2.07
2022-12-31T00:58:56.113Z,2.08
2022-12-31T01:01:25.836Z,2.06
2022-12-31T01:03:55.569Z,2.04
2022-12-31T01:06:22.250Z,1.95
2022-12-31T01:08:50.300Z,2.08
2022-12-31T01:11:22.466Z,1.49
2022-12-31T01:13:49.714Z,2.07
2022-12-31T01:16:17.747Z,2.08
2022-12-31T01:18:44.399Z,1.67
2022-12-31T01:21:12.516Z,1.99
2022-12-31T01:23:39.752Z,2.05
2022-12-31T01:26:08.503Z,1.89
2022-12-31T01:28:35.993Z,1.36
2022-12-31T01:31:07.989Z,1.92
2022-12-31T01:33:35.478Z,1.22
2022-12-31T01:36:14.269Z,1.82
2022-12-31T01:38:41.644Z,1.08
2022-12-31T01:41:12.312Z,1.24
2022-12-31T01:43:54.373Z,1.66
2022-12-31T01:46:28.271Z,1.68
2022-12-31T01:49:00.268Z,1.56
2022-12-31T01:51:31.643Z,1.13
2022-12-31T01:54:00.576Z,1.30
2022-12-31T01:56:27.314Z,1.34
2022-12-31T01:58:56.836Z,1.39
2022-12-31T02:01:31.078Z,1.73
2022-12-31T02:03:58.563Z,1.71
2022-12-31T02:06:33.044Z,1.63
2022-12-31T02:09:00.217Z,1.00
2022-12-31T02:11:28.667Z,1.60
2022-12-31T02:14:05.280Z,1.69
2022-12-31T02:16:37.532Z,1.75
2022-12-31T02:19:34.909Z,1.76
2022-12-31T02:22:23.920Z,1.46
2022-12-31T02:25:08.750Z,1.82
2022-12-31T02:27:56.109Z,1.95
2022-12-31T02:30:24.796Z,2.04
2022-12-31T02:32:58.709Z,1.79
2022-12-31T02:35:40.813Z,2.10
2022-12-31T02:38:12.119Z,1.87
2022-12-31T02:40:39.368Z,1.67
2022-12-31T02:43:06.145Z,2.05
2022-12-31T02:45:41.152Z,2.02
2022-12-31T02:48:39.668Z,2.14
2022-12-31T02:51:15.656Z,1.98
2022-12-31T02:54:07.838Z,2.15
2022-12-31T02:57:04.313Z,2.10
2022-12-31T02:59:58.159Z,2.01
2022-12-31T03:02:28.156Z,1.95
2022-12-31T03:04:56.973Z,2.01
2022-12-31T03:07:29.951Z,1.93
2022-12-31T03:09:56.641Z,1.66
2022-12-31T03:12:44.422Z,1.93
2022-12-31T03:15:20.499Z,1.86
2022-12-31T03:17:55.527Z,1.79
2022-12-31T03:20:47.786Z,1.71
2022-12-31T03:23:17.881Z,1.50
2022-12-31T03:25:45.166Z,1.08
2022-12-31T03:28:16.377Z,1.01
2022-12-31T03:30:46.795Z,1.12
2022-12-31T03:33:14.220Z,0.98
2022-12-31T03:35:43.005Z,1.24
2022-12-31T03:38:09.544Z,1.17
2022-12-31T03:40:45.118Z,0.94
2022-12-31T03:43:12.453Z,1.18
2022-12-31T03:45:39.350Z,1.36
2022-12-31T03:48:08.149Z,1.26
2022-12-31T03:50:35.762Z,1.52
2022-12-31T03:53:02.586Z,1.44
2022-12-31T03:55:29.165Z,1.46
2022-12-31T03:57:55.712Z,1.47
2022-12-31T04:00:22.915Z,1.35
2022-12-31T04:02:50.767Z,1.72
2022-12-31T04:05:18.394Z,1.39
2022-12-31T04:07:45.344Z,1.38
2022-12-31T04:10:14.499Z,1.66
2022-12-31T04:12:41.188Z,1.63
2022-12-31T04:15:08.846Z,1.62
2022-12-31T04:17:35.561Z,1.18
2022-12-31T04:20:02.691Z,1.26
2022-12-31T04:22:29.387Z,1.17
2022-12-31T04:24:55.981Z,1.00
2022-12-31T04:27:22.748Z,1.17
2022-12-31T04:29:49.291Z,0.81
2022-12-31T04:32:16.001Z,0.98
2022-12-31T04:34:42.688Z,0.80
2022-12-31T04:37:09.294Z,0.97
2022-12-31T04:39:35.818Z,0.98
2022-12-31T04:42:02.469Z,0.93
2022-12-31T04:44:29.144Z,1.13
2022-12-31T04:46:55.785Z,1.12
2022-12-31T04:49:22.334Z,1.07
2022-12-31T04:51:48.986Z,0.74
2022-12-31T04:54:15.532Z,0.79
2022-12-31T04:56:42.108Z,0.90
2022-12-31T04:59:09.981Z,1.01
2022-12-31T05:01:37.213Z,0.77
2022-12-31T05:04:04.051Z,0.73
2022-12-31T05:06:30.614Z,0.66
2022-12-31T05:08:57.315Z,0.68
2022-12-31T05:11:24.025Z,0.72
2022-12-31T05:13:50.580Z,0.66
2022-12-31T05:16:17.176Z,0.67
2022-12-31T05:18:43.858Z,0.64
2022-12-31T05:21:17.952Z,0.76
2022-12-31T05:23:44.661Z,0.44
2022-12-31T05:26:11.188Z,0.99
2022-12-31T05:28:37.837Z,0.86
2022-12-31T05:31:04.596Z,1.03
2022-12-31T05:33:31.238Z,0.82
2022-12-31T05:36:00.584Z,0.97
2022-12-31T05:38:27.219Z,0.69
2022-12-31T05:41:05.852Z,0.80
2022-12-31T05:43:33.011Z,1.14
2022-12-31T05:46:04.439Z,1.13
2022-12-31T05:48:31.300Z,1.12
2022-12-31T05:50:58.190Z,0.97
2022-12-31T05:53:24.857Z,1.15
2022-12-31T05:55:51.447Z,0.92
2022-12-31T05:58:18.263Z,0.73
2022-12-31T06:00:44.972Z,1.02
2022-12-31T06:03:11.910Z,0.99
2022-12-31T06:05:43.039Z,1.07
2022-12-31T06:08:11.137Z,0.85
2022-12-31T06:10:39.099Z,0.87
2022-12-31T06:13:06.230Z,0.99
2022-12-31T06:15:39.038Z,0.59
2022-12-31T06:18:06.813Z,1.03
2022-12-31T06:20:33.852Z,0.92
2022-12-31T06:23:00.458Z,0.55
2022-12-31T06:25:27.659Z,0.95
2022-12-31T06:27:54.346Z,0.89
2022-12-31T06:30:21.016Z,0.95
2022-12-31T06:32:47.842Z,1.15
2022-12-31T06:35:14.630Z,0.94
2022-12-31T06:37:41.370Z,1.24
2022-12-31T06:40:08.605Z,0.85
2022-12-31T06:42:35.255Z,1.23
2022-12-31T06:45:01.858Z,1.12
2022-12-31T06:47:28.878Z,1.21
2022-12-31T06:49:55.388Z,1.12
2022-12-31T06:52:22.640Z,1.28
2022-12-31T06:54:49.718Z,0.97
2022-12-31T06:57:16.756Z,1.01
2022-12-31T06:59:44.830Z,0.91
2022-12-31T07:02:26.720Z,1.32
2022-12-31T07:05:06.494Z,1.41
2022-12-31T07:08:00.692Z,1.33
2022-12-31T07:10:29.644Z,1.54
2022-12-31T07:13:02.815Z,1.50
2022-12-31T07:16:00.107Z,1.15
2022-12-31T07:18:38.895Z,1.46
2022-12-31T07:21:13.570Z,1.44
2022-12-31T07:23:41.706Z,1.31
2022-12-31T07:26:36.333Z,1.23
2022-12-31T07:29:19.892Z,1.28
2022-12-31T07:31:52.495Z,1.57
2022-12-31T07:34:19.032Z,1.62
2022-12-31T07:37:04.452Z,1.69
2022-12-31T07:39:46.517Z,1.43
2022-12-31T07:42:37.081Z,1.09
2022-12-31T07:45:13.092Z,1.35
2022-12-31T07:47:39.920Z,1.43
2022-12-31T07:50:13.858Z,1.46
2022-12-31T07:52:40.740Z,1.75
2022-12-31T07:55:07.559Z,1.79
2022-12-31T07:57:38.651Z,1.89
2022-12-31T08:00:13.843Z,1.80
2022-12-31T08:03:31.293Z,2.23
2022-12-31T08:06:12.569Z,2.43
2022-12-31T08:08:58.785Z,2.67
2022-12-31T08:11:41.173Z,2.80
2022-12-31T08:14:12.161Z,3.25
2022-12-31T08:16:39.191Z,2.76
2022-12-31T08:19:06.299Z,3.44
2022-12-31T08:21:48.637Z,3.81
2022-12-31T08:24:22.739Z,4.23
2022-12-31T08:27:19.580Z,4.60
2022-12-31T08:29:49.275Z,4.89
2022-12-31T08:32:32.489Z,4.95
2022-12-31T08:35:47.101Z,4.78
2022-12-31T08:38:43.564Z,5.28
2022-12-31T08:41:20.692Z,4.75
2022-12-31T08:43:58.355Z,5.23
2022-12-31T08:46:31.373Z,5.14
2022-12-31T08:48:58.230Z,5.59
2022-12-31T08:51:26.725Z,5.65
2022-12-31T08:53:55.195Z,5.00
2022-12-31T08:56:50.642Z,5.20
2022-12-31T08:59:23.935Z,4.78
2022-12-31T09:02:07.332Z,5.00
2022-12-31T09:04:57.269Z,5.05
2022-12-31T09:07:37.259Z,4.91
2022-12-31T09:10:34.884Z,5.08
2022-12-31T09:13:23.412Z,5.11
2022-12-31T09:16:28.415Z,4.98
2022-12-31T09:18:55.043Z,4.80
2022-12-31T09:21:21.899Z,4.92
2022-12-31T09:23:48.783Z,4.93
2022-12-31T09:26:37.849Z,5.15
2022-12-31T09:29:10.296Z,5.05
2022-12-31T09:31:48.156Z,5.40
2022-12-31T09:34:33.696Z,5.74
2022-12-31T09:37:06.599Z,5.36
2022-12-31T09:39:43.998Z,5.86
2022-12-31T09:42:44.952Z,5.72
2022-12-31T09:45:41.392Z,6.00
2022-12-31T09:48:37.737Z,5.92
2022-12-31T09:51:26.453Z,6.19
2022-12-31T09:54:14.884Z,6.38
2022-12-31T09:57:08.056Z,6.47
2022-12-31T09:59:45.622Z,6.19
2022-12-31T10:02:47.397Z,6.39
2022-12-31T10:05:26.481Z,6.42
2022-12-31T10:08:27.621Z,6.98
2022-12-31T10:11:10.575Z,6.78
2022-12-31T10:13:58.492Z,6.95
2022-12-31T10:16:32.108Z,7.04
2022-12-31T10:19:13.970Z,7.37
2022-12-31T10:22:10.914Z,7.59
2022-12-31T10:24:54.466Z,8.13
2022-12-31T10:27:30.544Z,8.18
2022-12-31T10:30:13.050Z,8.77
2022-12-31T10:32:45.802Z,9.02
2022-12-31T10:35:15.027Z,9.21
2022-12-31T10:38:01.047Z,9.43
2022-12-31T10:41:10.099Z,9.50
2022-12-31T10:43:42.796Z,9.66
2022-12-31T10:46:23.234Z,9.51
2022-12-31T10:49:11.186Z,9.47
2022-12-31T10:51:56.001Z,9.33
2022-12-31T10:54:31.779Z,9.68
2022-12-31T10:57:35.955Z,10.01
2022-12-31T11:00:11.810Z,10.12
2022-12-31T11:02:53.676Z,10.17
2022-12-31T11:05:43.999Z,9.85
2022-12-31T11:08:48.174Z,10.24
2022-12-31T11:11:33.119Z,10.06
2022-12-31T11:14:08.847Z,9.92
2022-12-31T11:16:48.967Z,10.01
2022-12-31T11:19:29.059Z,10.37
2022-12-31T11:22:14.347Z,10.38
2022-12-31T11:24:59.301Z,10.39
2022-12-31T11:27:47.591Z,10.13
2022-12-31T11:30:25.181Z,9.85
2022-12-31T11:33:28.685Z,9.82
2022-12-31T11:36:13.609Z,10.37
2022-12-31T11:39:16.899Z,10.54
2022-12-31T11:41:52.118Z,10.53
2022-12-31T11:44:38.912Z,10.68
2022-12-31T11:47:05.541Z,10.81
2022-12-31T11:49:35.111Z,10.96
2022-12-31T11:52:35.508Z,10.85
2022-12-31T11:55:25.465Z,11.09
2022-12-31T11:57:53.605Z,11.11
2022-12-31T12:00:23.763Z,10.96
2022-12-31T12:02:53.981Z,10.87
2022-12-31T12:05:23.516Z,11.14
2022-12-31T12:07:51.064Z,11.02
2022-12-31T12:10:27.854Z,11.07
2022-12-31T12:12:59.477Z,11.11
2022-12-31T12:15:35.597Z,10.87
2022-12-31T12:18:09.599Z,11.24
2022-12-31T12:20:40.384Z,10.79
2022-12-31T12:23:16.763Z,11.36
2022-12-31T12:25:44.818Z,11.16
2022-12-31T12:28:18.633Z,11.23
2022-12-31T12:31:00.524Z,11.47
2022-12-31T12:33:30.040Z,11.29
2022-12-31T12:36:10.628Z,11.50
2022-12-31T12:38:37.951Z,11.27
2022-12-31T12:41:09.797Z,11.24
2022-12-31T12:43:37.791Z,11.13
2022-12-31T12:46:26.412Z,11.15
2022-12-31T12:48:58.362Z,11.04
2022-12-31T12:51:44.413Z,11.16
2022-12-31T12:54:37.202Z,10.56
2022-12-31T12:57:34.632Z,11.06
2022-12-31T13:00:23.156Z,10.53
2022-12-31T13:02:54.095Z,10.76
2022-12-31T13:05:37.950Z,10.35
2022-12-31T13:08:10.562Z,10.61
2022-12-31T13:11:15.987Z,10.40
2022-12-31T13:13:48.420Z,10.63
2022-12-31T13:16:45.910Z,10.16
2022-12-31T13:19:52.110Z,9.90
2022-12-31T13:22:48.482Z,10.46
2022-12-31T13:25:38.581Z,10.10
2022-12-31T13:28:11.103Z,10.15
2022-12-31T13:30:49.995Z,10.18
2022-12-31T13:33:19.004Z,10.20
2022-12-31T13:35:59.842Z,9.80
2022-12-31T13:38:35.035Z,10.23
2022-12-31T13:41:10.800Z,10.38
2022-12-31T13:43:50.781Z,10.19
2022-12-31T13:46:48.865Z,10.10
2022-12-31T13:49:24.122Z,9.81
2022-12-31T13:51:58.857Z,9.76
2022-12-31T13:54:51.547Z,9.80
2022-12-31T13:57:43.376Z,9.59
2022-12-31T14:00:24.300Z,9.84
2022-12-31T14:03:14.382Z,9.24
2022-12-31T14:05:49.503Z,9.36
2022-12-31T14:08:16.343Z,9.37
2022-12-31T14:10:57.666Z,9.64
2022-12-31T14:13:34.622Z,9.44
2022-12-31T14:16:16.457Z,9.41
2022-12-31T14:19:01.522Z,9.32
2022-12-31T14:21:54.926Z,8.67
2022-12-31T14:24:30.610Z,9.31
2022-12-31T14:27:03.620Z,9.04
2022-12-31T14:29:51.995Z,9.30
2022-12-31T14:32:27.247Z,8.82
2022-12-31T14:35:12.802Z,9.00
2022-12-31T14:38:14.901Z,8.78
2022-12-31T14:40:56.340Z,8.35
2022-12-31T14:44:07.452Z,8.83
2022-12-31T14:46:50.284Z,8.46
2022-12-31T14:49:39.825Z,8.72
2022-12-31T14:52:09.487Z,8.68
2022-12-31T14:54:38.034Z,8.60
2022-12-31T14:57:54.476Z,8.66
2022-12-31T15:00:38.171Z,8.66
2022-12-31T15:03:06.344Z,8.23
2022-12-31T15:05:36.229Z,8.48
2022-12-31T15:08:17.894Z,8.14
2022-12-31T15:11:02.719Z,8.86
2022-12-31T15:13:29.321Z,9.77
2022-12-31T15:16:11.149Z,10.56
2022-12-31T15:19:13.572Z,11.14
2022-12-31T15:21:56.792Z,11.29
2022-12-31T15:24:30.630Z,11.23
2022-12-31T15:27:06.585Z,11.04
2022-12-31T15:29:43.427Z,10.56
2022-12-31T15:32:19.008Z,10.23
2022-12-31T15:34:45.685Z,9.67
2022-12-31T15:37:36.310Z,9.82
2022-12-31T15:40:15.147Z,9.53
2022-12-31T15:43:09.714Z,9.30
2022-12-31T15:45:42.206Z,8.87
2022-12-31T15:49:04.235Z,8.88
2022-12-31T15:52:06.889Z,8.22
2022-12-31T15:54:41.076Z,8.23
2022-12-31T15:57:17.226Z,8.10
2022-12-31T15:59:44.821Z,7.69
2022-12-31T16:02:23.199Z,7.78
2022-12-31T16:04:50.371Z,7.23
2022-12-31T16:07:18.096Z,7.57
2022-12-31T16:09:51.288Z,7.25
2022-12-31T16:12:29.196Z,6.78
2022-12-31T16:14:59.743Z,7.12
2022-12-31T16:17:33.295Z,7.10
2022-12-31T16:20:03.037Z,7.17
2022-12-31T16:22:38.444Z,7.14
2022-12-31T16:27:54.412Z,6.84
2022-12-31T16:30:30.301Z,6.24
2022-12-31T16:33:03.172Z,6.28
2022-12-31T16:35:36.304Z,6.33
2022-12-31T16:38:16.252Z,6.72
2022-12-31T16:41:03.937Z,6.69
2022-12-31T16:43:37.918Z,6.18
2022-12-31T16:46:12.559Z,6.50
2022-12-31T16:48:39.520Z,6.38
2022-12-31T16:51:06.769Z,6.25
2022-12-31T16:53:38.077Z,6.18
2022-12-31T16:56:10.539Z,5.99
2022-12-31T16:58:42.443Z,6.20
2022-12-31T17:01:13.415Z,6.05
2022-12-31T17:03:45.650Z,5.68
2022-12-31T17:06:15.975Z,5.54
2022-12-31T17:09:00.752Z,6.03
2022-12-31T17:11:30.819Z,5.98
2022-12-31T17:14:06.735Z,5.93
2022-12-31T17:17:02.273Z,5.87
2022-12-31T17:19:38.932Z,5.83
2022-12-31T17:22:29.783Z,5.73
2022-12-31T17:25:21.862Z,5.85
2022-12-31T17:27:55.533Z,5.39
2022-12-31T17:30:42.707Z,5.74
2022-12-31T17:33:09.220Z,5.71
2022-12-31T17:35:41.911Z,5.69
2022-12-31T17:38:17.708Z,5.66
2022-12-31T17:40:51.253Z,5.19
2022-12-31T17:43:21.295Z,4.91
2022-12-31T17:45:51.357Z,5.49
2022-12-31T17:48:19.793Z,5.29
2022-12-31T17:50:54.591Z,5.40
2022-12-31T17:53:21.806Z,4.83
2022-12-31T17:55:51.275Z,4.98
2022-12-31T17:58:27.764Z,5.41
2022-12-31T18:00:57.050Z,5.35
2022-12-31T18:03:23.836Z,4.69
2022-12-31T18:05:50.800Z,5.37
2022-12-31T18:08:17.387Z,4.65
2022-12-31T18:10:44.956Z,4.80
2022-12-31T18:13:23.805Z,5.34
2022-12-31T18:15:50.768Z,5.06
2022-12-31T18:18:24.430Z,5.28
2022-12-31T18:20:54.993Z,5.03
2022-12-31T18:23:33.158Z,5.20
2022-12-31T18:25:59.788Z,4.50
2022-12-31T18:28:26.412Z,4.87
2022-12-31T18:30:53.110Z,4.62
2022-12-31T18:33:22.469Z,4.61
2022-12-31T18:36:08.137Z,4.71
2022-12-31T18:38:35.882Z,5.00
2022-12-31T18:41:02.500Z,4.60
2022-12-31T18:43:29.118Z,4.94
2022-12-31T18:45:56.183Z,4.70
2022-12-31T18:48:23.228Z,4.53
2022-12-31T18:50:50.579Z,4.15
2022-12-31T18:53:23.009Z,4.80
2022-12-31T18:55:57.390Z,4.53
2022-12-31T18:58:24.364Z,4.32
2022-12-31T19:00:51.696Z,4.15
2022-12-31T19:03:23.987Z,4.64
2022-12-31T19:05:51.835Z,4.29
2022-12-31T19:08:20.856Z,4.67
2022-12-31T19:10:49.333Z,4.71
2022-12-31T19:13:18.076Z,4.68
2022-12-31T19:15:52.092Z,4.48
2022-12-31T19:18:19.417Z,4.83
2022-12-31T19:20:46.281Z,4.29
2022-12-31T19:23:19.455Z,4.82
2022-12-31T19:25:47.662Z,4.72
2022-12-31T19:28:19.490Z,4.39
2022-12-31T19:30:46.344Z,4.30
2022-12-31T19:33:14.001Z,4.50
2022-12-31T19:35:41.583Z,4.85
2022-12-31T19:38:28.746Z,4.45
2022-12-31T19:40:55.662Z,4.65
2022-12-31T19:43:23.535Z,4.59
2022-12-31T19:45:51.625Z,4.65
2022-12-31T19:48:20.899Z,4.14
2022-12-31T19:50:53.157Z,4.24
2022-12-31T19:53:25.143Z,4.52
2022-12-31T19:55:53.283Z,4.47
2022-12-31T19:58:21.350Z,4.52
2022-12-31T20:00:55.567Z,4.08
2022-12-31T20:03:24.364Z,4.22
2022-12-31T20:05:51.543Z,4.24
2022-12-31T20:08:20.432Z,4.23
2022-12-31T20:10:47.380Z,3.77
2022-12-31T20:13:14.111Z,3.86
2022-12-31T20:15:47.681Z,3.92
2022-12-31T20:18:17.397Z,3.96
2022-12-31T20:20:53.431Z,3.58
2022-12-31T20:23:22.257Z,3.77
2022-12-31T20:25:59.226Z,3.81
2022-12-31T20:28:26.158Z,3.92
2022-12-31T20:30:53.058Z,3.64
2022-12-31T20:33:20.028Z,3.40
2022-12-31T20:35:46.647Z,3.33
2022-12-31T20:38:13.272Z,3.40
2022-12-31T20:40:46.228Z,3.76
2022-12-31T20:43:13.359Z,3.72
2022-12-31T20:45:41.310Z,3.59
2022-12-31T20:48:08.310Z,3.98
2022-12-31T20:50:35.139Z,3.67
2022-12-31T20:53:02.114Z,3.57
2022-12-31T20:55:30.747Z,4.05
2022-12-31T20:57:57.392Z,3.73
2022-12-31T21:00:23.917Z,3.88
2022-12-31T21:02:57.875Z,3.78
2022-12-31T21:05:33.794Z,3.90
2022-12-31T21:08:00.586Z,4.08
2022-12-31T21:10:27.152Z,3.52
2022-12-31T21:12:53.721Z,3.48
2022-12-31T21:15:21.644Z,4.06
2022-12-31T21:17:48.280Z,4.10
2022-12-31T21:20:14.861Z,3.74
2022-12-31T21:22:41.607Z,3.85
2022-12-31T21:25:09.892Z,4.01
2022-12-31T21:27:36.609Z,4.12
2022-12-31T21:30:19.919Z,4.04
2022-12-31T21:32:46.991Z,3.55
2022-12-31T21:38:04.964Z,4.23
2022-12-31T21:40:31.905Z,3.97
2022-12-31T21:42:58.880Z,3.62
2022-12-31T21:45:25.466Z,4.00
2022-12-31T21:48:10.595Z,4.01
2022-12-31T21:50:37.307Z,4.28
2022-12-31T21:53:03.909Z,4.01
2022-12-31T21:55:49.249Z,4.06
2022-12-31T21:58:31.761Z,4.18
2022-12-31T22:01:18.236Z,4.48
2022-12-31T22:03:45.067Z,4.39
2022-12-31T22:06:16.201Z,4.37
2022-12-31T22:08:44.529Z,4.08
2022-12-31T22:11:12.231Z,4.66
2022-12-31T22:13:39.621Z,4.55
2022-12-31T22:16:07.259Z,4.41
2022-12-31T22:18:38.594Z,4.77
2022-12-31T22:21:10.795Z,4.85
2022-12-31T22:23:41.442Z,4.84
2022-12-31T22:26:10.611Z,4.74
2022-12-31T22:28:40.431Z,4.83
2022-12-31T22:31:24.540Z,4.81
2022-12-31T22:33:51.549Z,4.26
2022-12-31T22:36:20.624Z,4.52
2022-12-31T22:38:48.037Z,4.84
2022-12-31T22:41:20.038Z,4.22
2022-12-31T22:43:48.899Z,4.84
2022-12-31T22:46:19.252Z,4.50
2022-12-31T22:48:45.906Z,4.64
2022-12-31T22:51:13.989Z,4.37
2022-12-31T22:53:41.350Z,4.87
2022-12-31T22:56:09.180Z,4.85
2022-12-31T22:58:36.473Z,4.92
2022-12-31T23:01:08.289Z,4.96
2022-12-31T23:03:35.322Z,4.49
2022-12-31T23:06:02.001Z,4.72
2022-12-31T23:08:28.623Z,4.73
2022-12-31T23:11:03.704Z,4.91
2022-12-31T23:13:55.095Z,4.97
2022-12-31T23:16:41.889Z,4.88
2022-12-31T23:19:27.600Z,4.64
2022-12-31T23:22:13.235Z,4.21
2022-12-31T23:24:39.854Z,4.61
2022-12-31T23:27:07.308Z,4.77
2022-12-31T23:29:33.882Z,4.41
2022-12-31T23:32:00.543Z,4.34
2022-12-31T23:34:27.253Z,4.28
2022-12-31T23:36:54.001Z,4.45
2022-12-31T23:39:20.732Z,4.57
2022-12-31T23:41:47.363Z,4.74
2022-12-31T23:44:13.956Z,4.26
2022-12-31T23:46:41.068Z,4.19
2022-12-31T23:49:07.746Z,4.92
2022-12-31T23:51:36.579Z,4.98
2022-12-31T23:54:07.606Z,5.15
2022-12-31T23:56:34.373Z,4.81
2022-12-31T23:59:01.068Z,4.73
